SHT4H EGLL-EGCC
Flight info
| Callsign | SHT4H |
|---|---|
| Flight time | 0h 31m |
| Altitude | 18000 |
| Route | UMLAT T418 WELIN T420 ELVOS |
| Aircraft | A20N/M-SDE2E3FGHIRWXY/LB1 |
Departure
| Time | 2026-05-03 22:28 |
|---|---|
| Airport | London Heathrow Airport (EGLL) |
Arrival
| Time | 2026-05-03 22:59 |
|---|---|
| Airport | Manchester Airport (EGCC) |
| Time | Latitude | Longitude | Altitude | Speed | Heading |
|---|---|---|---|---|---|
| 2026-05-03 22:01 | 51.46928 | -0.48861 | 90 ft | 0 kts | 360° |
| 2026-05-03 22:15 | 51.46916 | -0.48861 | 93 ft | 2 kts | 357° |
| 2026-05-03 22:15 | 51.46900 | -0.48855 | 94 ft | 2 kts | 338° |
| 2026-05-03 22:15 | 51.46888 | -0.48838 | 93 ft | 2 kts | 317° |
| 2026-05-03 22:16 | 51.46874 | -0.48839 | 91 ft | 2 kts | 65° |
| 2026-05-03 22:16 | 51.46871 | -0.48864 | 93 ft | 2 kts | 96° |
| 2026-05-03 22:16 | 51.46875 | -0.48889 | 92 ft | 1 kts | 97° |
| 2026-05-03 22:16 | 51.46875 | -0.48893 | 92 ft | 0 kts | 93° |
| 2026-05-03 22:19 | 51.46875 | -0.48827 | 94 ft | 11 kts | 89° |
| 2026-05-03 22:19 | 51.46876 | -0.48704 | 90 ft | 11 kts | 89° |
| 2026-05-03 22:19 | 51.46876 | -0.48576 | 90 ft | 12 kts | 90° |
| 2026-05-03 22:20 | 51.46845 | -0.48475 | 91 ft | 11 kts | 167° |
| 2026-05-03 22:20 | 51.46766 | -0.48471 | 93 ft | 12 kts | 180° |
| 2026-05-03 22:20 | 51.46681 | -0.48467 | 90 ft | 12 kts | 165° |
| 2026-05-03 22:20 | 51.46652 | -0.48354 | 90 ft | 12 kts | 89° |
| 2026-05-03 22:21 | 51.46652 | -0.48193 | 90 ft | 17 kts | 90° |
| 2026-05-03 22:21 | 51.46653 | -0.47997 | 90 ft | 17 kts | 89° |
| 2026-05-03 22:21 | 51.46653 | -0.47810 | 90 ft | 16 kts | 90° |
| 2026-05-03 22:21 | 51.46654 | -0.47626 | 90 ft | 17 kts | 90° |
| 2026-05-03 22:22 | 51.46655 | -0.47436 | 90 ft | 17 kts | 89° |
| 2026-05-03 22:22 | 51.46655 | -0.47307 | 92 ft | 18 kts | 89° |
| 2026-05-03 22:22 | 51.46656 | -0.47110 | 93 ft | 18 kts | 90° |
| 2026-05-03 22:22 | 51.46657 | -0.46909 | 91 ft | 18 kts | 90° |
| 2026-05-03 22:23 | 51.46657 | -0.46705 | 93 ft | 18 kts | 89° |
| 2026-05-03 22:23 | 51.46658 | -0.46427 | 93 ft | 19 kts | 90° |
| 2026-05-03 22:23 | 51.46659 | -0.46283 | 93 ft | 19 kts | 89° |
| 2026-05-03 22:23 | 51.46660 | -0.46068 | 93 ft | 19 kts | 90° |
| 2026-05-03 22:24 | 51.46660 | -0.45851 | 93 ft | 20 kts | 89° |
| 2026-05-03 22:24 | 51.46661 | -0.45629 | 90 ft | 20 kts | 90° |
| 2026-05-03 22:24 | 51.46662 | -0.45427 | 90 ft | 17 kts | 90° |
| 2026-05-03 22:24 | 51.46662 | -0.45234 | 90 ft | 17 kts | 89° |
| 2026-05-03 22:25 | 51.46663 | -0.45041 | 90 ft | 18 kts | 90° |
| 2026-05-03 22:25 | 51.46663 | -0.44852 | 90 ft | 17 kts | 90° |
| 2026-05-03 22:25 | 51.46664 | -0.44656 | 90 ft | 18 kts | 90° |
| 2026-05-03 22:25 | 51.46665 | -0.44455 | 90 ft | 18 kts | 89° |
| 2026-05-03 22:26 | 51.46666 | -0.44247 | 90 ft | 19 kts | 89° |
| 2026-05-03 22:26 | 51.46666 | -0.44053 | 90 ft | 13 kts | 90° |
| 2026-05-03 22:26 | 51.46666 | -0.43905 | 90 ft | 13 kts | 89° |
| 2026-05-03 22:26 | 51.46667 | -0.43760 | 90 ft | 12 kts | 90° |
| 2026-05-03 22:27 | 51.46663 | -0.43647 | 90 ft | 10 kts | 110° |
| 2026-05-03 22:27 | 51.46605 | -0.43608 | 90 ft | 10 kts | 178° |
| 2026-05-03 22:27 | 51.46537 | -0.43588 | 92 ft | 10 kts | 165° |
| 2026-05-03 22:27 | 51.46494 | -0.43643 | 89 ft | 10 kts | 268° |
| 2026-05-03 22:28 | 51.46493 | -0.43770 | 89 ft | 20 kts | 270° |
| 2026-05-03 22:28 | 51.46491 | -0.44402 | 91 ft | 94 kts | 270° |
| 2026-05-03 22:28 | 51.46486 | -0.45837 | 127 ft | 156 kts | 268° |
| 2026-05-03 22:28 | 51.46469 | -0.47605 | 772 ft | 161 kts | 267° |
| 2026-05-03 22:29 | 51.46435 | -0.49414 | 1643 ft | 161 kts | 269° |
| 2026-05-03 22:29 | 51.46666 | -0.51283 | 2305 ft | 189 kts | 288° |
| 2026-05-03 22:29 | 51.47234 | -0.53286 | 3122 ft | 205 kts | 294° |
| 2026-05-03 22:29 | 51.47931 | -0.55439 | 3685 ft | 235 kts | 295° |
| 2026-05-03 22:30 | 51.48736 | -0.57903 | 4357 ft | 259 kts | 295° |
| 2026-05-03 22:30 | 51.49581 | -0.60500 | 5322 ft | 263 kts | 295° |
| 2026-05-03 22:30 | 51.50429 | -0.63122 | 6462 ft | 267 kts | 294° |
| 2026-05-03 22:30 | 51.51364 | -0.65733 | 7434 ft | 275 kts | 303° |
| 2026-05-03 22:31 | 51.52775 | -0.67890 | 8450 ft | 287 kts | 326° |
| 2026-05-03 22:31 | 51.54686 | -0.68950 | 9466 ft | 297 kts | 353° |
| 2026-05-03 22:31 | 51.56771 | -0.68759 | 10356 ft | 308 kts | 5° |
| 2026-05-03 22:31 | 51.59002 | -0.68674 | 10808 ft | 332 kts | 357° |
| 2026-05-03 22:32 | 51.61340 | -0.68837 | 11484 ft | 345 kts | 355° |
| 2026-05-03 22:32 | 51.63763 | -0.69071 | 12397 ft | 352 kts | 354° |
| 2026-05-03 22:32 | 51.66232 | -0.69330 | 13356 ft | 359 kts | 354° |
| 2026-05-03 22:32 | 51.68739 | -0.69602 | 14252 ft | 364 kts | 354° |
| 2026-05-03 22:33 | 51.71293 | -0.69883 | 15125 ft | 369 kts | 354° |
| 2026-05-03 22:33 | 51.73874 | -0.70171 | 15992 ft | 374 kts | 354° |
| 2026-05-03 22:33 | 51.76495 | -0.70464 | 16850 ft | 380 kts | 354° |
| 2026-05-03 22:33 | 51.79143 | -0.70762 | 17559 ft | 383 kts | 354° |
| 2026-05-03 22:34 | 51.81820 | -0.71063 | 17889 ft | 385 kts | 354° |
| 2026-05-03 22:34 | 51.84464 | -0.71358 | 17945 ft | 375 kts | 354° |
| 2026-05-03 22:34 | 51.87015 | -0.71642 | 17938 ft | 371 kts | 354° |
| 2026-05-03 22:34 | 51.89587 | -0.71930 | 17936 ft | 371 kts | 354° |
| 2026-05-03 22:35 | 51.92171 | -0.72222 | 17935 ft | 371 kts | 354° |
| 2026-05-03 22:35 | 51.94745 | -0.72514 | 17934 ft | 371 kts | 354° |
| 2026-05-03 22:35 | 51.97319 | -0.72806 | 17934 ft | 371 kts | 354° |
| 2026-05-03 22:35 | 51.99891 | -0.73100 | 17934 ft | 371 kts | 353° |
| 2026-05-03 22:36 | 52.02420 | -0.73823 | 17930 ft | 368 kts | 344° |
| 2026-05-03 22:36 | 52.04896 | -0.74854 | 17934 ft | 368 kts | 341° |
| 2026-05-03 22:36 | 52.07350 | -0.76029 | 17937 ft | 367 kts | 340° |
| 2026-05-03 22:36 | 52.09789 | -0.77286 | 17933 ft | 367 kts | 339° |
| 2026-05-03 22:37 | 52.12222 | -0.78581 | 17928 ft | 367 kts | 339° |
| 2026-05-03 22:37 | 52.14649 | -0.79884 | 17928 ft | 367 kts | 339° |
| 2026-05-03 22:37 | 52.17073 | -0.81181 | 17931 ft | 367 kts | 339° |
| 2026-05-03 22:37 | 52.19498 | -0.82471 | 17938 ft | 367 kts | 339° |
| 2026-05-03 22:38 | 52.21930 | -0.83757 | 17934 ft | 367 kts | 339° |
| 2026-05-03 22:38 | 52.24276 | -0.85199 | 17934 ft | 364 kts | 330° |
| 2026-05-03 22:38 | 52.26524 | -0.87081 | 17932 ft | 363 kts | 328° |
| 2026-05-03 22:38 | 52.28726 | -0.89104 | 17935 ft | 362 kts | 326° |
| 2026-05-03 22:39 | 52.30892 | -0.91213 | 17935 ft | 362 kts | 325° |
| 2026-05-03 22:39 | 52.33043 | -0.93370 | 17936 ft | 362 kts | 324° |
| 2026-05-03 22:39 | 52.35178 | -0.95534 | 17935 ft | 362 kts | 324° |
| 2026-05-03 22:39 | 52.37316 | -0.97701 | 17939 ft | 361 kts | 324° |
| 2026-05-03 22:40 | 52.39460 | -0.99869 | 17938 ft | 361 kts | 324° |
| 2026-05-03 22:40 | 52.41602 | -1.02026 | 17938 ft | 362 kts | 324° |
| 2026-05-03 22:40 | 52.43749 | -1.04182 | 17935 ft | 362 kts | 324° |
| 2026-05-03 22:40 | 52.45872 | -1.06312 | 17932 ft | 362 kts | 324° |
| 2026-05-03 22:41 | 52.48024 | -1.08471 | 17930 ft | 362 kts | 324° |
| 2026-05-03 22:41 | 52.50175 | -1.10630 | 17923 ft | 362 kts | 324° |
| 2026-05-03 22:41 | 52.52323 | -1.12790 | 17923 ft | 362 kts | 324° |
| 2026-05-03 22:41 | 52.54475 | -1.14956 | 17923 ft | 362 kts | 324° |
| 2026-05-03 22:42 | 52.56623 | -1.17120 | 17920 ft | 362 kts | 324° |
| 2026-05-03 22:42 | 52.58777 | -1.19293 | 17917 ft | 362 kts | 324° |
| 2026-05-03 22:42 | 52.60928 | -1.21466 | 17917 ft | 363 kts | 324° |
| 2026-05-03 22:42 | 52.63075 | -1.23636 | 17912 ft | 363 kts | 324° |
| 2026-05-03 22:43 | 52.65212 | -1.25799 | 17915 ft | 363 kts | 324° |
| 2026-05-03 22:43 | 52.67369 | -1.27985 | 17911 ft | 363 kts | 324° |
| 2026-05-03 22:43 | 52.69524 | -1.30171 | 17914 ft | 363 kts | 324° |
| 2026-05-03 22:43 | 52.71677 | -1.32361 | 17910 ft | 364 kts | 324° |
| 2026-05-03 22:44 | 52.73833 | -1.34555 | 17963 ft | 364 kts | 324° |
| 2026-05-03 22:44 | 52.75983 | -1.36746 | 17967 ft | 363 kts | 324° |
| 2026-05-03 22:44 | 52.78150 | -1.38959 | 17776 ft | 368 kts | 324° |
| 2026-05-03 22:44 | 52.80328 | -1.41185 | 17505 ft | 368 kts | 324° |
| 2026-05-03 22:45 | 52.82506 | -1.43411 | 17238 ft | 367 kts | 325° |
| 2026-05-03 22:45 | 52.84667 | -1.45624 | 16979 ft | 365 kts | 325° |
| 2026-05-03 22:45 | 52.86822 | -1.47832 | 16715 ft | 364 kts | 325° |
| 2026-05-03 22:45 | 52.88945 | -1.50012 | 16456 ft | 362 kts | 325° |
| 2026-05-03 22:46 | 52.91076 | -1.52201 | 16083 ft | 358 kts | 325° |
| 2026-05-03 22:46 | 52.93191 | -1.54377 | 15636 ft | 357 kts | 325° |
| 2026-05-03 22:46 | 52.95299 | -1.56549 | 15187 ft | 356 kts | 325° |
| 2026-05-03 22:46 | 52.97396 | -1.58712 | 14741 ft | 353 kts | 325° |
| 2026-05-03 22:47 | 52.99475 | -1.60859 | 14308 ft | 351 kts | 325° |
| 2026-05-03 22:47 | 53.01544 | -1.62997 | 13880 ft | 348 kts | 325° |
| 2026-05-03 22:47 | 53.03594 | -1.65119 | 13385 ft | 346 kts | 325° |
| 2026-05-03 22:47 | 53.05517 | -1.67458 | 12855 ft | 340 kts | 314° |
| 2026-05-03 22:48 | 53.07138 | -1.70277 | 12336 ft | 333 kts | 308° |
| 2026-05-03 22:48 | 53.08622 | -1.73127 | 11825 ft | 320 kts | 307° |
| 2026-05-03 22:48 | 53.10041 | -1.75899 | 11345 ft | 309 kts | 307° |
| 2026-05-03 22:48 | 53.11413 | -1.78583 | 10842 ft | 301 kts | 307° |
| 2026-05-03 22:49 | 53.12753 | -1.81202 | 10364 ft | 294 kts | 307° |
| 2026-05-03 22:49 | 53.14066 | -1.83762 | 9873 ft | 288 kts | 308° |
| 2026-05-03 22:49 | 53.15355 | -1.86276 | 9362 ft | 282 kts | 308° |
| 2026-05-03 22:49 | 53.16601 | -1.88710 | 8847 ft | 277 kts | 308° |
| 2026-05-03 22:50 | 53.17849 | -1.91146 | 8339 ft | 274 kts | 308° |
| 2026-05-03 22:50 | 53.19068 | -1.93527 | 8029 ft | 264 kts | 309° |
| 2026-05-03 22:50 | 53.20244 | -1.95825 | 7988 ft | 259 kts | 309° |
| 2026-05-03 22:50 | 53.21412 | -1.98117 | 7980 ft | 259 kts | 307° |
| 2026-05-03 22:51 | 53.22240 | -2.00735 | 7889 ft | 253 kts | 280° |
| 2026-05-03 22:51 | 53.22324 | -2.03606 | 7749 ft | 247 kts | 263° |
| 2026-05-03 22:51 | 53.22151 | -2.06454 | 7493 ft | 244 kts | 260° |
| 2026-05-03 22:51 | 53.21949 | -2.09239 | 7190 ft | 239 kts | 260° |
| 2026-05-03 22:52 | 53.21741 | -2.11969 | 6915 ft | 237 kts | 260° |
| 2026-05-03 22:52 | 53.21525 | -2.14703 | 6605 ft | 237 kts | 260° |
| 2026-05-03 22:52 | 53.21307 | -2.17425 | 6280 ft | 236 kts | 260° |
| 2026-05-03 22:52 | 53.21081 | -2.20141 | 5937 ft | 235 kts | 260° |
| 2026-05-03 22:53 | 53.20850 | -2.22841 | 5609 ft | 234 kts | 260° |
| 2026-05-03 22:53 | 53.20617 | -2.25486 | 5284 ft | 233 kts | 260° |
| 2026-05-03 22:53 | 53.20374 | -2.28157 | 5005 ft | 233 kts | 260° |
| 2026-05-03 22:53 | 53.20125 | -2.30829 | 4610 ft | 233 kts | 260° |
| 2026-05-03 22:54 | 53.19865 | -2.33517 | 4114 ft | 236 kts | 260° |
| 2026-05-03 22:54 | 53.19593 | -2.36229 | 3625 ft | 238 kts | 262° |
| 2026-05-03 22:54 | 53.19705 | -2.38944 | 3174 ft | 235 kts | 292° |
| 2026-05-03 22:54 | 53.20607 | -2.41057 | 3003 ft | 216 kts | 322° |
| 2026-05-03 22:55 | 53.21785 | -2.42504 | 2986 ft | 209 kts | 329° |
| 2026-05-03 22:55 | 53.22996 | -2.43840 | 2989 ft | 209 kts | 330° |
| 2026-05-03 22:55 | 53.24216 | -2.45169 | 2989 ft | 209 kts | 331° |
| 2026-05-03 22:55 | 53.25580 | -2.45665 | 2968 ft | 201 kts | 12° |
| 2026-05-03 22:56 | 53.26821 | -2.44703 | 2779 ft | 195 kts | 35° |
| 2026-05-03 22:56 | 53.27790 | -2.43197 | 2513 ft | 188 kts | 51° |
| 2026-05-03 22:56 | 53.28567 | -2.41533 | 2268 ft | 177 kts | 51° |
| 2026-05-03 22:56 | 53.29335 | -2.39956 | 2051 ft | 173 kts | 50° |
| 2026-05-03 22:57 | 53.30089 | -2.38413 | 1806 ft | 173 kts | 50° |
| 2026-05-03 22:57 | 53.30849 | -2.36842 | 1562 ft | 171 kts | 50° |
| 2026-05-03 22:57 | 53.31551 | -2.35392 | 1356 ft | 151 kts | 50° |
| 2026-05-03 22:57 | 53.32176 | -2.34100 | 1115 ft | 135 kts | 50° |
| 2026-05-03 22:58 | 53.32735 | -2.32945 | 917 ft | 121 kts | 50° |
| 2026-05-03 22:58 | 53.33261 | -2.31860 | 746 ft | 119 kts | 50° |
| 2026-05-03 22:58 | 53.33780 | -2.30786 | 586 ft | 119 kts | 52° |
| 2026-05-03 22:58 | 53.34299 | -2.29714 | 412 ft | 118 kts | 51° |
| 2026-05-03 22:59 | 53.34817 | -2.28649 | 296 ft | 118 kts | 51° |
| 2026-05-03 22:59 | 53.35322 | -2.27605 | 239 ft | 105 kts | 51° |
| 2026-05-03 22:59 | 53.35647 | -2.26932 | 244 ft | 58 kts | 51° |
| 2026-05-03 22:59 | 53.35801 | -2.26675 | 250 ft | 15 kts | 356° |
| 2026-05-03 23:00 | 53.35881 | -2.26697 | 239 ft | 0 kts | 350° |
| 2026-05-03 23:00 | 53.35888 | -2.26699 | 239 ft | 0 kts | 351° |
| 2026-05-03 23:01 | 53.35915 | -2.26707 | 238 ft | 10 kts | 345° |
| 2026-05-03 23:01 | 53.35901 | -2.26833 | 237 ft | 18 kts | 235° |
| 2026-05-03 23:01 | 53.35828 | -2.27003 | 236 ft | 17 kts | 241° |
| 2026-05-03 23:02 | 53.35769 | -2.27147 | 236 ft | 8 kts | 230° |
| 2026-05-03 23:02 | 53.35730 | -2.27224 | 236 ft | 10 kts | 230° |
| 2026-05-03 23:02 | 53.35676 | -2.27337 | 236 ft | 14 kts | 231° |
| 2026-05-03 23:02 | 53.35620 | -2.27473 | 238 ft | 14 kts | 258° |
| 2026-05-03 23:03 | 53.35677 | -2.27600 | 236 ft | 15 kts | 323° |
| 2026-05-03 23:03 | 53.35773 | -2.27669 | 239 ft | 15 kts | 330° |
| 2026-05-03 23:03 | 53.35853 | -2.27808 | 236 ft | 18 kts | 313° |
| 2026-05-03 23:03 | 53.35967 | -2.27863 | 236 ft | 18 kts | 328° |
| 2026-05-03 23:04 | 53.36057 | -2.27894 | 236 ft | 14 kts | 28° |
| 2026-05-03 23:04 | 53.36134 | -2.27961 | 236 ft | 14 kts | 315° |
| 2026-05-03 23:04 | 53.36203 | -2.28078 | 236 ft | 15 kts | 315° |
| 2026-05-03 23:04 | 53.36279 | -2.28205 | 236 ft | 16 kts | 315° |
| 2026-05-03 23:05 | 53.36359 | -2.28340 | 236 ft | 17 kts | 315° |
| 2026-05-03 23:05 | 53.36432 | -2.28496 | 236 ft | 17 kts | 310° |
| 2026-05-03 23:05 | 53.36517 | -2.28641 | 236 ft | 18 kts | 314° |
| 2026-05-03 23:05 | 53.36610 | -2.28773 | 238 ft | 16 kts | 357° |
| 2026-05-03 23:06 | 53.36702 | -2.28744 | 236 ft | 9 kts | 328° |
| 2026-05-03 23:06 | 53.36738 | -2.28803 | 236 ft | 1 kts | 315° |
| 2026-05-03 23:06 | 53.36739 | -2.28804 | 236 ft | 0 kts | 315° |